createdAt,value
2022-12-07T00:00:21.987Z,0
2022-12-07T00:01:28.793Z,0
2022-12-07T00:02:35.534Z,0
2022-12-07T00:03:42.317Z,0
2022-12-07T00:04:49.123Z,0
2022-12-07T00:05:55.874Z,0
2022-12-07T00:07:02.706Z,0
2022-12-07T00:08:09.434Z,0
2022-12-07T00:09:42.838Z,0
2022-12-07T00:10:48.888Z,0
2022-12-07T00:11:55.522Z,0
2022-12-07T00:13:01.966Z,0
2022-12-07T00:14:08.545Z,0
2022-12-07T00:15:15.097Z,0
2022-12-07T00:16:21.669Z,0
2022-12-07T00:17:28.136Z,0
2022-12-07T00:18:34.728Z,0
2022-12-07T00:19:41.236Z,0
2022-12-07T00:20:47.739Z,0
2022-12-07T00:21:54.313Z,0
2022-12-07T00:23:00.846Z,0
2022-12-07T00:24:07.361Z,0
2022-12-07T00:25:13.982Z,0
2022-12-07T00:26:20.451Z,0
2022-12-07T00:27:27.021Z,0
2022-12-07T00:28:33.511Z,0
2022-12-07T00:29:40.123Z,0
2022-12-07T00:30:46.627Z,0
2022-12-07T00:31:53.283Z,0
2022-12-07T00:32:59.664Z,0
2022-12-07T00:34:06.228Z,0
2022-12-07T00:35:12.737Z,0
2022-12-07T00:37:25.826Z,0
2022-12-07T00:38:32.611Z,0
2022-12-07T00:39:39.437Z,0
2022-12-07T00:40:46.153Z,0
2022-12-07T00:41:52.987Z,0
2022-12-07T00:42:59.704Z,0
2022-12-07T00:44:06.582Z,0
2022-12-07T00:45:13.277Z,0
2022-12-07T00:46:20.048Z,0
2022-12-07T00:47:26.941Z,0
2022-12-07T00:48:33.637Z,0
2022-12-07T00:49:40.400Z,0
2022-12-07T00:50:47.151Z,0
2022-12-07T00:51:53.933Z,0
2022-12-07T00:53:01.216Z,0
2022-12-07T00:54:39.374Z,0
2022-12-07T00:55:45.803Z,0
2022-12-07T00:56:52.370Z,0
2022-12-07T00:57:58.943Z,0
2022-12-07T00:59:05.489Z,0
2022-12-07T01:00:11.963Z,0
2022-12-07T01:01:18.495Z,0
2022-12-07T01:02:25.123Z,0
2022-12-07T01:03:31.579Z,0
2022-12-07T01:04:38.249Z,0
2022-12-07T01:05:44.657Z,0
2022-12-07T01:06:51.197Z,0
2022-12-07T01:07:57.740Z,0
2022-12-07T01:09:04.353Z,0
2022-12-07T01:10:10.926Z,0
2022-12-07T01:11:17.368Z,0
2022-12-07T01:12:23.897Z,0
2022-12-07T01:13:30.441Z,0
2022-12-07T01:14:37.007Z,0
2022-12-07T01:15:43.524Z,0
2022-12-07T01:16:50.124Z,0
2022-12-07T01:17:56.677Z,0
2022-12-07T01:19:03.204Z,0
2022-12-07T01:20:09.762Z,0
2022-12-07T01:21:16.545Z,0
2022-12-07T01:22:23.107Z,0
2022-12-07T01:23:29.786Z,0
2022-12-07T01:24:36.610Z,0
2022-12-07T01:25:43.333Z,0
2022-12-07T01:26:50.208Z,0
2022-12-07T01:27:56.893Z,0
2022-12-07T01:29:03.701Z,0
2022-12-07T01:30:10.488Z,0
2022-12-07T01:31:17.227Z,0
2022-12-07T01:32:24.005Z,0
2022-12-07T01:33:30.784Z,0
2022-12-07T01:34:37.564Z,0
2022-12-07T01:35:44.354Z,0
2022-12-07T01:39:02.533Z,0
2022-12-07T01:40:38.029Z,0
2022-12-07T01:41:44.122Z,0
2022-12-07T01:42:50.533Z,0
2022-12-07T01:43:56.859Z,0
2022-12-07T01:45:03.287Z,0
2022-12-07T01:46:09.704Z,0
2022-12-07T01:47:16.189Z,0
2022-12-07T01:48:22.537Z,0
2022-12-07T01:49:29.057Z,0
2022-12-07T01:50:35.471Z,0
2022-12-07T01:51:41.801Z,0
2022-12-07T01:52:48.230Z,0
2022-12-07T01:53:54.693Z,0
2022-12-07T01:55:01.120Z,0
2022-12-07T01:56:07.493Z,0
2022-12-07T01:57:13.921Z,0
2022-12-07T01:58:20.475Z,0
2022-12-07T01:59:26.807Z,0
2022-12-07T02:00:33.193Z,0
2022-12-07T02:01:39.618Z,0
2022-12-07T02:02:46.037Z,0
2022-12-07T02:03:52.494Z,0
2022-12-07T02:04:58.904Z,0
2022-12-07T02:06:05.377Z,0
2022-12-07T02:07:11.798Z,0
2022-12-07T02:08:18.225Z,0
2022-12-07T02:09:24.760Z,0
2022-12-07T02:10:31.320Z,0
2022-12-07T02:11:37.823Z,0
2022-12-07T02:12:44.329Z,0
2022-12-07T02:13:50.888Z,0
2022-12-07T02:14:57.422Z,0
2022-12-07T02:16:03.949Z,0
2022-12-07T02:17:10.492Z,0
2022-12-07T02:18:17.034Z,0
2022-12-07T02:19:23.572Z,0
2022-12-07T02:20:30.122Z,0
2022-12-07T02:21:36.685Z,0
2022-12-07T02:22:43.208Z,0
2022-12-07T02:24:15.261Z,0
2022-12-07T02:25:22.095Z,0
2022-12-07T02:26:28.826Z,0
2022-12-07T02:27:35.602Z,0
2022-12-07T02:28:42.500Z,0
2022-12-07T02:29:49.167Z,0
2022-12-07T02:30:55.959Z,0
2022-12-07T02:32:02.733Z,0
2022-12-07T02:33:09.630Z,0
2022-12-07T02:34:16.288Z,0
2022-12-07T02:35:23.071Z,0
2022-12-07T02:36:29.831Z,0
2022-12-07T02:37:36.602Z,0
2022-12-07T02:40:54.948Z,0
2022-12-07T02:42:33.537Z,0
2022-12-07T02:44:11.660Z,0
2022-12-07T02:45:18.097Z,0
2022-12-07T02:46:24.638Z,0
2022-12-07T02:47:31.166Z,0
2022-12-07T02:48:37.707Z,0
2022-12-07T02:49:44.249Z,0
2022-12-07T02:50:50.783Z,0
2022-12-07T02:51:57.334Z,0
2022-12-07T02:53:03.880Z,0
2022-12-07T02:54:10.415Z,0
2022-12-07T02:55:16.971Z,0
2022-12-07T02:56:23.589Z,0
2022-12-07T02:57:30.064Z,0
2022-12-07T02:58:36.646Z,0
2022-12-07T02:59:43.213Z,0
2022-12-07T03:00:49.665Z,0
2022-12-07T03:01:56.208Z,0
2022-12-07T03:03:02.760Z,0
2022-12-07T03:04:09.300Z,0
2022-12-07T03:05:15.949Z,0
2022-12-07T03:06:22.379Z,0
2022-12-07T03:07:28.993Z,0
2022-12-07T03:08:35.468Z,0
2022-12-07T03:09:42.025Z,0
2022-12-07T03:10:48.600Z,0
2022-12-07T03:11:55.336Z,0
2022-12-07T03:13:02.132Z,0
2022-12-07T03:14:08.896Z,0
2022-12-07T03:15:15.715Z,0
2022-12-07T03:16:22.463Z,0
2022-12-07T03:17:29.236Z,0
2022-12-07T03:18:36.120Z,0
2022-12-07T03:19:42.849Z,0
2022-12-07T03:20:49.622Z,0
2022-12-07T03:21:56.352Z,0
2022-12-07T03:23:03.126Z,0
2022-12-07T03:24:09.917Z,0
2022-12-07T03:25:16.692Z,0
2022-12-07T03:28:34.928Z,0
2022-12-07T03:30:12.906Z,0
2022-12-07T03:31:19.440Z,0
2022-12-07T03:32:25.991Z,0
2022-12-07T03:33:32.536Z,0
2022-12-07T03:34:39.077Z,0
2022-12-07T03:35:45.731Z,0
2022-12-07T03:36:52.219Z,0
2022-12-07T03:37:58.692Z,0
2022-12-07T03:39:05.241Z,0
2022-12-07T03:40:11.779Z,0
2022-12-07T03:41:18.338Z,0
2022-12-07T03:42:24.862Z,0
2022-12-07T03:43:31.463Z,0
2022-12-07T03:44:37.954Z,0
2022-12-07T03:45:44.489Z,0
2022-12-07T03:46:51.032Z,0
2022-12-07T03:47:57.579Z,0
2022-12-07T03:49:04.140Z,0
2022-12-07T03:50:10.671Z,0
2022-12-07T03:51:17.196Z,0
2022-12-07T03:52:23.728Z,0
2022-12-07T03:53:30.397Z,0
2022-12-07T03:54:36.900Z,0
2022-12-07T03:55:43.368Z,0
2022-12-07T03:56:49.910Z,0
2022-12-07T03:57:56.685Z,0
2022-12-07T03:59:03.516Z,0
2022-12-07T04:00:10.249Z,0
2022-12-07T04:01:17.091Z,0
2022-12-07T04:02:23.803Z,0
2022-12-07T04:03:30.583Z,0
2022-12-07T04:04:37.365Z,0
2022-12-07T04:05:44.137Z,0
2022-12-07T04:06:50.918Z,0
2022-12-07T04:07:57.702Z,0
2022-12-07T04:09:04.471Z,0
2022-12-07T04:10:11.256Z,0
2022-12-07T04:11:18.109Z,0
2022-12-07T04:14:36.212Z,0
2022-12-07T04:16:14.116Z,0
2022-12-07T04:17:20.525Z,0
2022-12-07T04:18:26.945Z,0
2022-12-07T04:19:33.358Z,0
2022-12-07T04:20:39.771Z,0
2022-12-07T04:21:46.188Z,0
2022-12-07T04:22:52.607Z,0
2022-12-07T04:23:59.033Z,0
2022-12-07T04:25:05.454Z,0
2022-12-07T04:26:11.886Z,0
2022-12-07T04:27:18.324Z,0
2022-12-07T04:28:24.755Z,0
2022-12-07T04:29:31.158Z,0
2022-12-07T04:30:37.563Z,0
2022-12-07T04:31:43.979Z,0
2022-12-07T04:32:50.453Z,0
2022-12-07T04:33:56.827Z,0
2022-12-07T04:35:03.294Z,0
2022-12-07T04:36:09.683Z,0
2022-12-07T04:37:16.098Z,0
2022-12-07T04:38:22.524Z,0
2022-12-07T04:39:28.950Z,0
2022-12-07T04:40:35.368Z,0
2022-12-07T04:41:41.780Z,0
2022-12-07T04:42:48.199Z,0
2022-12-07T04:43:54.755Z,0
2022-12-07T04:45:01.292Z,0
2022-12-07T04:46:07.845Z,0
2022-12-07T04:47:14.384Z,0
2022-12-07T04:48:20.930Z,0
2022-12-07T04:49:27.475Z,0
2022-12-07T04:50:34.025Z,0
2022-12-07T04:51:40.567Z,0
2022-12-07T04:52:47.099Z,0
2022-12-07T04:53:53.642Z,0
2022-12-07T04:55:00.231Z,0
2022-12-07T04:56:06.750Z,0
2022-12-07T04:57:13.253Z,0
2022-12-07T04:59:02.605Z,0
2022-12-07T05:00:09.377Z,0
2022-12-07T05:01:16.152Z,0
2022-12-07T05:02:22.940Z,0
2022-12-07T05:03:29.707Z,0
2022-12-07T05:04:36.489Z,0
2022-12-07T05:05:43.262Z,0
2022-12-07T05:06:50.057Z,0
2022-12-07T05:07:56.818Z,0
2022-12-07T05:09:03.691Z,0
2022-12-07T05:10:10.379Z,0
2022-12-07T05:11:17.161Z,0
2022-12-07T05:12:23.941Z,0
2022-12-07T05:15:42.157Z,0
2022-12-07T05:17:20.135Z,0
2022-12-07T05:18:26.685Z,0
2022-12-07T05:19:33.221Z,0
2022-12-07T05:20:39.770Z,0
2022-12-07T05:21:46.313Z,0
2022-12-07T05:22:52.856Z,0
2022-12-07T05:23:59.409Z,0
2022-12-07T05:25:05.933Z,0
2022-12-07T05:26:12.470Z,0
2022-12-07T05:27:19.012Z,0
2022-12-07T05:28:25.550Z,0
2022-12-07T05:29:32.096Z,0
2022-12-07T05:30:38.633Z,0
2022-12-07T05:31:45.184Z,0
2022-12-07T05:32:51.717Z,0
2022-12-07T05:33:58.351Z,0
2022-12-07T05:35:04.844Z,0
2022-12-07T05:36:11.360Z,0
2022-12-07T05:37:18.069Z,0
2022-12-07T05:38:24.438Z,0
2022-12-07T05:39:30.986Z,0
2022-12-07T05:40:37.519Z,0
2022-12-07T05:41:44.079Z,0
2022-12-07T05:42:50.614Z,0
2022-12-07T05:43:57.157Z,0
2022-12-07T05:45:03.943Z,0
2022-12-07T05:46:10.759Z,0
2022-12-07T05:47:17.573Z,0
2022-12-07T05:48:24.343Z,0
2022-12-07T05:49:31.129Z,0
2022-12-07T05:50:37.875Z,0
2022-12-07T05:51:44.624Z,0
2022-12-07T05:52:51.398Z,0
2022-12-07T05:53:58.151Z,0
2022-12-07T05:55:04.929Z,0
2022-12-07T05:56:11.707Z,0
2022-12-07T05:57:18.613Z,0
2022-12-07T05:58:25.327Z,0
2022-12-07T06:01:43.462Z,0
2022-12-07T06:03:21.707Z,0
2022-12-07T06:04:28.498Z,0
2022-12-07T06:05:35.266Z,0
2022-12-07T06:06:42.133Z,0
2022-12-07T06:07:48.821Z,0
2022-12-07T06:08:55.629Z,0
2022-12-07T06:10:02.373Z,0
2022-12-07T06:11:09.162Z,0
2022-12-07T06:12:15.947Z,0
2022-12-07T06:13:22.704Z,0
2022-12-07T06:14:29.497Z,0
2022-12-07T06:15:36.268Z,0
2022-12-07T06:16:43.050Z,0
2022-12-07T06:17:49.877Z,0
2022-12-07T06:18:56.592Z,0
2022-12-07T06:20:03.459Z,0
2022-12-07T06:21:10.181Z,0
2022-12-07T06:22:16.927Z,0
2022-12-07T06:23:23.718Z,0
2022-12-07T06:24:30.515Z,0
2022-12-07T06:25:37.301Z,0
2022-12-07T06:26:44.156Z,0
2022-12-07T06:27:50.830Z,0
2022-12-07T06:28:57.603Z,0
2022-12-07T06:30:04.401Z,0
2022-12-07T06:31:37.733Z,0
2022-12-07T06:32:44.790Z,0
2022-12-07T06:34:31.482Z,0
2022-12-07T06:36:09.583Z,0
2022-12-07T06:37:16.048Z,0
2022-12-07T06:38:22.592Z,0
2022-12-07T06:39:29.132Z,0
2022-12-07T06:40:35.660Z,0
2022-12-07T06:41:42.215Z,0
2022-12-07T06:42:48.757Z,0
2022-12-07T06:43:55.312Z,0
2022-12-07T06:45:01.836Z,0
2022-12-07T06:46:08.378Z,0
2022-12-07T06:47:14.906Z,0
2022-12-07T06:48:21.469Z,0
2022-12-07T06:49:28.059Z,0
2022-12-07T06:50:34.548Z,0
2022-12-07T06:51:41.146Z,0
2022-12-07T06:52:47.683Z,0
2022-12-07T06:53:54.162Z,0
2022-12-07T06:55:00.752Z,0
2022-12-07T06:56:07.243Z,0
2022-12-07T06:57:13.782Z,0
2022-12-07T06:58:20.421Z,0
2022-12-07T06:59:26.866Z,0
2022-12-07T07:00:33.411Z,0
2022-12-07T07:01:39.945Z,0
2022-12-07T07:02:46.511Z,0
2022-12-07T07:03:53.273Z,0
2022-12-07T07:05:00.208Z,0
2022-12-07T07:06:06.830Z,0
2022-12-07T07:07:13.699Z,0
2022-12-07T07:08:20.370Z,0
2022-12-07T07:10:33.967Z,5
2022-12-07T07:11:40.655Z,5
2022-12-07T07:12:47.418Z,5
2022-12-07T07:13:54.173Z,5
2022-12-07T07:15:00.819Z,5
2022-12-07T07:16:07.631Z,11
2022-12-07T07:17:14.318Z,11
2022-12-07T07:20:32.447Z,11
2022-12-07T07:22:11.213Z,16
2022-12-07T07:23:18.411Z,11
2022-12-07T07:24:25.668Z,11
2022-12-07T07:26:04.422Z,11
2022-12-07T07:27:43.079Z,11
2022-12-07T07:29:21.806Z,16
2022-12-07T07:31:00.595Z,16
2022-12-07T07:32:39.239Z,16
2022-12-07T07:34:17.944Z,22
2022-12-07T07:35:56.698Z,22
2022-12-07T07:37:35.376Z,28
2022-12-07T07:39:14.371Z,28
2022-12-07T07:40:53.814Z,33
2022-12-07T07:44:09.556Z,39
2022-12-07T07:45:16.095Z,45
2022-12-07T07:46:22.663Z,50
2022-12-07T07:47:29.235Z,50
2022-12-07T07:48:35.752Z,56
2022-12-07T07:49:42.269Z,61
2022-12-07T07:50:48.865Z,67
2022-12-07T07:51:55.325Z,67
2022-12-07T07:53:01.835Z,61
2022-12-07T07:54:08.354Z,61
2022-12-07T07:55:14.921Z,56
2022-12-07T07:56:21.471Z,56
2022-12-07T07:57:27.982Z,61
2022-12-07T07:58:34.526Z,67
2022-12-07T07:59:40.964Z,67
2022-12-07T08:00:47.495Z,73
2022-12-07T08:01:54.027Z,84
2022-12-07T08:03:00.553Z,84
2022-12-07T08:04:07.214Z,84
2022-12-07T08:05:13.606Z,78
2022-12-07T08:06:20.136Z,84
2022-12-07T08:08:33.301Z,90
2022-12-07T08:09:39.831Z,95
2022-12-07T08:10:46.255Z,95
2022-12-07T08:12:59.748Z,101
2022-12-07T08:14:06.519Z,101
2022-12-07T08:15:13.184Z,106
2022-12-07T08:16:19.943Z,106
2022-12-07T08:17:26.769Z,106
2022-12-07T08:18:33.339Z,112
2022-12-07T08:19:40.065Z,112
2022-12-07T08:20:46.767Z,118
2022-12-07T08:21:53.573Z,118
2022-12-07T08:23:00.243Z,123
2022-12-07T08:24:07.023Z,123
2022-12-07T08:27:52.566Z,135
2022-12-07T08:29:31.168Z,140
2022-12-07T08:31:09.923Z,140
2022-12-07T08:32:48.548Z,146
2022-12-07T08:33:55.864Z,151
2022-12-07T08:35:02.863Z,151
2022-12-07T08:36:41.760Z,151
2022-12-07T08:38:20.295Z,157
2022-12-07T08:39:59.107Z,163
2022-12-07T08:41:37.869Z,163
2022-12-07T08:43:16.430Z,168
2022-12-07T08:44:55.130Z,180
2022-12-07T08:46:33.872Z,196
2022-12-07T08:50:23.728Z,230
2022-12-07T08:51:30.186Z,275
2022-12-07T08:52:36.757Z,281
2022-12-07T08:53:43.159Z,292
2022-12-07T08:54:49.698Z,298
2022-12-07T08:55:56.111Z,303
2022-12-07T08:57:02.583Z,315
2022-12-07T08:58:09.211Z,320
2022-12-07T08:59:15.711Z,309
2022-12-07T09:00:22.229Z,298
2022-12-07T09:01:28.704Z,292
2022-12-07T09:03:41.802Z,286
2022-12-07T09:04:48.333Z,281
2022-12-07T09:05:54.732Z,286
2022-12-07T09:07:01.270Z,309
2022-12-07T09:08:07.874Z,320
2022-12-07T09:09:14.315Z,331
2022-12-07T09:10:20.746Z,331
2022-12-07T09:11:27.287Z,326
2022-12-07T09:12:33.847Z,303
2022-12-07T09:13:40.436Z,275
2022-12-07T09:14:46.879Z,230
2022-12-07T09:15:53.488Z,208
2022-12-07T09:16:59.832Z,208
2022-12-07T09:18:06.446Z,219
2022-12-07T09:19:13.208Z,253
2022-12-07T09:20:19.878Z,281
2022-12-07T09:21:26.615Z,303
2022-12-07T09:22:33.355Z,343
2022-12-07T09:23:40.090Z,382
2022-12-07T09:24:46.857Z,410
2022-12-07T09:25:53.524Z,416
2022-12-07T09:27:00.304Z,405
2022-12-07T09:28:06.970Z,405
2022-12-07T09:29:14.045Z,388
2022-12-07T09:30:20.606Z,376
2022-12-07T09:31:27.351Z,371
2022-12-07T09:32:33.891Z,331
2022-12-07T09:35:14.453Z,292
2022-12-07T09:36:53.196Z,281
2022-12-07T09:38:31.799Z,275
2022-12-07T09:40:10.604Z,253
2022-12-07T09:41:17.661Z,241
2022-12-07T09:42:25.072Z,247
2022-12-07T09:44:03.749Z,253
2022-12-07T09:45:42.358Z,264
2022-12-07T09:47:21.069Z,247
2022-12-07T09:48:59.711Z,253
2022-12-07T09:50:38.479Z,258
2022-12-07T09:52:17.167Z,270
2022-12-07T09:53:55.874Z,275
2022-12-07T09:57:45.822Z,315
2022-12-07T09:58:54.107Z,281
2022-12-07T10:02:09.803Z,303
2022-12-07T10:03:16.612Z,433
2022-12-07T10:04:23.434Z,444
2022-12-07T10:05:30.191Z,461
2022-12-07T10:06:36.929Z,472
2022-12-07T10:07:43.593Z,478
2022-12-07T10:08:50.309Z,466
2022-12-07T10:09:57.090Z,450
2022-12-07T10:11:03.741Z,421
2022-12-07T10:12:10.444Z,376
2022-12-07T10:13:17.113Z,371
2022-12-07T10:14:23.840Z,354
2022-12-07T10:15:30.649Z,348
2022-12-07T10:16:37.271Z,331
2022-12-07T10:17:44.070Z,315
2022-12-07T10:18:50.697Z,309
2022-12-07T10:19:57.534Z,331
2022-12-07T10:21:04.163Z,360
2022-12-07T10:22:10.862Z,388
2022-12-07T10:23:17.626Z,450
2022-12-07T10:24:24.334Z,511
2022-12-07T10:25:31.062Z,590
2022-12-07T10:26:37.827Z,646
2022-12-07T10:27:44.482Z,675
2022-12-07T10:28:51.207Z,444
2022-12-07T10:30:38.701Z,444
2022-12-07T10:31:46.022Z,652
2022-12-07T10:33:24.580Z,787
2022-12-07T10:35:03.277Z,466
2022-12-07T10:36:42.049Z,500
2022-12-07T10:38:20.706Z,573
2022-12-07T10:39:59.403Z,646
2022-12-07T10:41:38.098Z,523
2022-12-07T10:43:16.863Z,472
2022-12-07T10:44:55.570Z,438
2022-12-07T10:46:34.242Z,455
2022-12-07T10:47:41.589Z,579
2022-12-07T10:48:48.723Z,523
2022-12-07T10:52:56.741Z,500
2022-12-07T10:56:12.683Z,320
2022-12-07T10:57:19.416Z,438
2022-12-07T10:58:26.209Z,444
2022-12-07T10:59:32.882Z,523
2022-12-07T11:00:39.595Z,568
2022-12-07T11:01:46.334Z,472
2022-12-07T11:02:52.982Z,450
2022-12-07T11:03:59.795Z,438
2022-12-07T11:05:06.481Z,427
2022-12-07T11:06:13.126Z,405
2022-12-07T11:07:20.024Z,405
2022-12-07T11:08:26.588Z,427
2022-12-07T11:09:33.370Z,461
2022-12-07T11:10:40.107Z,461
2022-12-07T11:11:46.838Z,450
2022-12-07T11:12:53.573Z,466
2022-12-07T11:14:00.313Z,478
2022-12-07T11:15:06.975Z,517
2022-12-07T11:16:13.816Z,540
2022-12-07T11:17:20.432Z,556
2022-12-07T11:18:27.134Z,534
2022-12-07T11:19:33.892Z,500
2022-12-07T11:20:40.569Z,489
2022-12-07T11:21:47.448Z,506
2022-12-07T11:22:54.242Z,500
2022-12-07T11:24:27.800Z,472
2022-12-07T11:26:06.619Z,438
2022-12-07T11:27:45.271Z,466
2022-12-07T11:29:23.948Z,534
2022-12-07T11:31:02.505Z,545
2022-12-07T11:32:09.924Z,534
2022-12-07T11:33:17.019Z,528
2022-12-07T11:34:55.839Z,534
2022-12-07T11:36:34.550Z,506
2022-12-07T11:38:13.324Z,433
2022-12-07T11:39:51.948Z,365
2022-12-07T11:41:30.680Z,303
2022-12-07T11:43:09.433Z,286
2022-12-07T11:47:17.410Z,286
2022-12-07T11:48:36.122Z,258
2022-12-07T11:50:33.063Z,275
2022-12-07T11:51:39.517Z,275
2022-12-07T11:52:46.077Z,292
2022-12-07T11:53:52.515Z,292
2022-12-07T11:54:59.082Z,281
2022-12-07T11:56:05.541Z,286
2022-12-07T11:57:12.027Z,298
2022-12-07T11:58:18.524Z,309
2022-12-07T11:59:24.851Z,286
2022-12-07T12:00:31.438Z,292
2022-12-07T12:01:37.808Z,331
2022-12-07T12:02:44.283Z,399
2022-12-07T12:03:50.817Z,444
2022-12-07T12:04:57.417Z,472
2022-12-07T12:06:03.771Z,495
2022-12-07T12:07:10.332Z,506
2022-12-07T12:08:16.727Z,489
2022-12-07T12:09:23.203Z,500
2022-12-07T12:10:29.744Z,478
2022-12-07T12:11:36.223Z,450
2022-12-07T12:12:42.625Z,410
2022-12-07T12:13:49.159Z,410
2022-12-07T12:14:55.651Z,421
2022-12-07T12:16:02.238Z,427
2022-12-07T12:17:08.846Z,388
2022-12-07T12:18:15.581Z,365
2022-12-07T12:19:22.434Z,365
2022-12-07T12:20:29.056Z,399
2022-12-07T12:21:35.829Z,405
2022-12-07T12:22:42.591Z,399
2022-12-07T12:23:49.324Z,399
2022-12-07T12:24:56.104Z,399
2022-12-07T12:26:02.897Z,360
2022-12-07T12:27:09.591Z,326
2022-12-07T12:28:16.264Z,292
2022-12-07T12:29:23.075Z,281
2022-12-07T12:30:29.664Z,281
2022-12-07T12:33:09.343Z,286
2022-12-07T12:34:48.044Z,309
2022-12-07T12:36:26.731Z,354
2022-12-07T12:38:05.489Z,410
2022-12-07T12:39:12.638Z,405
2022-12-07T12:40:19.875Z,388
2022-12-07T12:41:58.537Z,382
2022-12-07T12:43:37.244Z,354
2022-12-07T12:45:16.060Z,343
2022-12-07T12:46:54.796Z,343
2022-12-07T12:48:33.410Z,343
2022-12-07T12:50:12.118Z,315
2022-12-07T12:51:50.782Z,275
2022-12-07T12:55:40.666Z,270
2022-12-07T12:56:47.402Z,253
2022-12-07T12:57:53.920Z,247
2022-12-07T12:59:00.514Z,253
2022-12-07T13:00:06.922Z,253
2022-12-07T13:01:13.536Z,275
2022-12-07T13:02:19.873Z,292
2022-12-07T13:03:26.377Z,303
2022-12-07T13:04:32.831Z,298
2022-12-07T13:05:39.315Z,286
2022-12-07T13:06:45.781Z,264
2022-12-07T13:07:52.254Z,247
2022-12-07T13:08:58.872Z,247
2022-12-07T13:10:05.335Z,247
2022-12-07T13:11:11.794Z,258
2022-12-07T13:12:18.358Z,275
2022-12-07T13:13:24.817Z,258
2022-12-07T13:14:31.282Z,264
2022-12-07T13:15:37.892Z,258
2022-12-07T13:16:44.285Z,264
2022-12-07T13:17:50.718Z,264
2022-12-07T13:18:57.206Z,286
2022-12-07T13:20:03.727Z,309
2022-12-07T13:21:10.320Z,315
2022-12-07T13:22:16.785Z,331
2022-12-07T13:23:23.152Z,320
2022-12-07T13:24:29.892Z,298
2022-12-07T13:25:36.588Z,292
2022-12-07T13:26:43.349Z,275
2022-12-07T13:27:50.079Z,253
2022-12-07T13:28:56.799Z,258
2022-12-07T13:30:03.508Z,286
2022-12-07T13:31:10.211Z,258
2022-12-07T13:32:16.929Z,241
2022-12-07T13:33:23.725Z,241
2022-12-07T13:34:30.359Z,236
2022-12-07T13:35:37.175Z,247
2022-12-07T13:36:43.792Z,258
2022-12-07T13:37:50.602Z,253
2022-12-07T13:40:30.433Z,230
2022-12-07T13:42:09.133Z,236
2022-12-07T13:43:47.863Z,236
2022-12-07T13:45:26.573Z,213
2022-12-07T13:46:33.783Z,180
2022-12-07T13:47:40.922Z,151
2022-12-07T13:49:19.708Z,140
2022-12-07T13:50:58.380Z,135
2022-12-07T13:52:37.124Z,157
2022-12-07T13:54:15.842Z,151
2022-12-07T13:55:54.546Z,118
2022-12-07T13:57:33.201Z,118
2022-12-07T13:59:11.903Z,140
2022-12-07T14:03:01.741Z,151
2022-12-07T14:04:09.078Z,123
2022-12-07T14:05:55.987Z,118
2022-12-07T14:07:34.645Z,112
2022-12-07T14:09:13.421Z,112
2022-12-07T14:10:52.208Z,106
2022-12-07T14:12:30.746Z,106
2022-12-07T14:14:09.451Z,101
2022-12-07T14:15:48.326Z,106
2022-12-07T14:17:26.865Z,106
2022-12-07T14:19:05.621Z,112
2022-12-07T14:20:44.364Z,118
2022-12-07T14:22:22.983Z,112
2022-12-07T14:24:01.692Z,101
2022-12-07T14:25:40.490Z,101
2022-12-07T14:27:19.156Z,101
2022-12-07T14:28:57.942Z,95
2022-12-07T14:30:36.619Z,101
2022-12-07T14:32:15.300Z,106
2022-12-07T14:33:54.044Z,123
2022-12-07T14:35:32.727Z,129
2022-12-07T14:36:39.912Z,118
2022-12-07T14:37:47.218Z,112
2022-12-07T14:39:25.809Z,118
2022-12-07T14:41:04.671Z,112
2022-12-07T14:42:43.211Z,112
2022-12-07T14:46:51.267Z,106
2022-12-07T14:50:07.228Z,67
2022-12-07T14:51:13.905Z,50
2022-12-07T14:52:20.668Z,50
2022-12-07T14:53:27.412Z,50
2022-12-07T14:54:34.186Z,50
2022-12-07T14:55:41.031Z,50
2022-12-07T14:56:47.910Z,50
2022-12-07T14:57:54.619Z,50
2022-12-07T14:59:01.386Z,50
2022-12-07T15:00:08.071Z,45
2022-12-07T15:01:15.017Z,45
2022-12-07T15:02:21.863Z,45
2022-12-07T15:03:28.483Z,45
2022-12-07T15:04:35.268Z,39
2022-12-07T15:05:42.037Z,39
2022-12-07T15:06:48.759Z,39
2022-12-07T15:07:55.507Z,33
2022-12-07T15:09:02.430Z,28
2022-12-07T15:10:09.031Z,28
2022-12-07T15:11:15.920Z,22
2022-12-07T15:12:22.735Z,22
2022-12-07T15:13:29.374Z,22
2022-12-07T15:14:36.121Z,16
2022-12-07T15:15:42.882Z,16
2022-12-07T15:16:49.623Z,16
2022-12-07T15:19:01.892Z,16
2022-12-07T15:20:09.087Z,11
2022-12-07T15:21:16.373Z,11
2022-12-07T15:22:55.020Z,11
2022-12-07T15:24:33.768Z,5
2022-12-07T15:26:11.831Z,5
2022-12-07T15:27:18.311Z,5
2022-12-07T15:28:24.760Z,5
2022-12-07T15:29:31.257Z,5
2022-12-07T15:30:37.766Z,5
2022-12-07T15:31:44.306Z,0
2022-12-07T15:32:50.858Z,0
2022-12-07T15:33:57.495Z,0
2022-12-07T15:35:03.932Z,0
2022-12-07T15:36:10.555Z,0
2022-12-07T15:37:17.094Z,0
2022-12-07T15:38:23.664Z,0
2022-12-07T15:39:30.207Z,0
2022-12-07T15:40:36.717Z,0
2022-12-07T15:41:43.168Z,0
2022-12-07T15:42:49.849Z,0
2022-12-07T15:43:56.284Z,0
2022-12-07T15:45:02.772Z,0
2022-12-07T15:46:09.467Z,0
2022-12-07T15:47:15.947Z,0
2022-12-07T15:48:22.389Z,0
2022-12-07T15:49:28.970Z,0
2022-12-07T15:50:35.573Z,0
2022-12-07T15:51:42.035Z,0
2022-12-07T15:52:48.611Z,0
2022-12-07T15:53:55.329Z,0
2022-12-07T15:55:02.117Z,0
2022-12-07T15:56:08.984Z,0
2022-12-07T15:57:15.824Z,0
2022-12-07T15:58:22.445Z,0
2022-12-07T15:59:29.295Z,0
2022-12-07T16:00:36.134Z,0
2022-12-07T16:01:42.904Z,0
2022-12-07T16:02:49.543Z,0
2022-12-07T16:03:56.452Z,0
2022-12-07T16:05:03.208Z,0
2022-12-07T16:06:09.884Z,0
2022-12-07T16:07:16.762Z,0
2022-12-07T16:08:23.979Z,0
2022-12-07T16:10:02.099Z,0
2022-12-07T16:11:08.564Z,0
2022-12-07T16:12:15.204Z,0
2022-12-07T16:13:21.577Z,0
2022-12-07T16:14:28.109Z,0
2022-12-07T16:15:34.824Z,0
2022-12-07T16:16:41.192Z,0
2022-12-07T16:17:47.858Z,0
2022-12-07T16:18:54.268Z,0
2022-12-07T16:20:00.818Z,0
2022-12-07T16:21:07.348Z,0
2022-12-07T16:22:13.961Z,0
2022-12-07T16:23:20.471Z,0
2022-12-07T16:24:26.973Z,0
2022-12-07T16:25:33.683Z,0
2022-12-07T16:26:40.074Z,0
2022-12-07T16:27:46.588Z,0
2022-12-07T16:28:53.138Z,0
2022-12-07T16:29:59.750Z,0
2022-12-07T16:31:06.216Z,0
2022-12-07T16:32:12.782Z,0
2022-12-07T16:33:19.305Z,0
2022-12-07T16:34:25.841Z,0
2022-12-07T16:35:32.382Z,0
2022-12-07T16:36:38.917Z,0
2022-12-07T16:37:45.737Z,0
2022-12-07T16:38:52.489Z,0
2022-12-07T16:39:59.436Z,0
2022-12-07T16:41:06.200Z,0
2022-12-07T16:42:12.801Z,0
2022-12-07T16:43:19.907Z,0
2022-12-07T16:44:26.558Z,0
2022-12-07T16:45:33.281Z,0
2022-12-07T16:46:40.154Z,0
2022-12-07T16:47:46.862Z,0
2022-12-07T16:48:53.620Z,0
2022-12-07T16:50:00.298Z,0
2022-12-07T16:51:07.075Z,0
2022-12-07T16:54:25.338Z,0
2022-12-07T16:56:00.113Z,0
2022-12-07T16:57:06.583Z,0
2022-12-07T16:58:13.141Z,0
2022-12-07T16:59:19.594Z,0
2022-12-07T17:00:26.316Z,0
2022-12-07T17:01:32.725Z,0
2022-12-07T17:02:39.205Z,0
2022-12-07T17:03:45.818Z,0
2022-12-07T17:04:52.355Z,0
2022-12-07T17:05:58.827Z,0
2022-12-07T17:07:05.436Z,0
2022-12-07T17:08:12.029Z,0
2022-12-07T17:09:18.485Z,0
2022-12-07T17:10:25.026Z,0
2022-12-07T17:11:31.623Z,0
2022-12-07T17:12:38.117Z,0
2022-12-07T17:13:44.635Z,0
2022-12-07T17:14:51.121Z,0
2022-12-07T17:15:57.656Z,0
2022-12-07T17:17:04.196Z,0
2022-12-07T17:18:10.728Z,0
2022-12-07T17:19:17.261Z,0
2022-12-07T17:20:23.827Z,0
2022-12-07T17:21:30.346Z,0
2022-12-07T17:22:36.988Z,0
2022-12-07T17:23:43.665Z,0
2022-12-07T17:24:50.462Z,0
2022-12-07T17:25:57.228Z,0
2022-12-07T17:27:04.005Z,0
2022-12-07T17:28:10.844Z,0
2022-12-07T17:29:17.705Z,0
2022-12-07T17:30:24.339Z,0
2022-12-07T17:31:31.123Z,0
2022-12-07T17:32:37.997Z,0
2022-12-07T17:33:44.708Z,0
2022-12-07T17:34:51.593Z,0
2022-12-07T17:35:58.296Z,0
2022-12-07T17:37:05.016Z,0
2022-12-07T17:38:12.301Z,0
2022-12-07T17:39:50.613Z,0
2022-12-07T17:40:57.386Z,0
2022-12-07T17:42:04.184Z,0
2022-12-07T17:43:10.982Z,0
2022-12-07T17:44:17.821Z,0
2022-12-07T17:45:24.599Z,0
2022-12-07T17:46:31.269Z,0
2022-12-07T17:47:38.130Z,0
2022-12-07T17:48:44.847Z,0
2022-12-07T17:49:51.652Z,0
2022-12-07T17:50:58.370Z,0
2022-12-07T17:52:05.160Z,0
2022-12-07T17:53:11.932Z,0
2022-12-07T17:54:18.719Z,0
2022-12-07T17:55:25.561Z,0
2022-12-07T17:56:32.348Z,0
2022-12-07T17:57:39.138Z,0
2022-12-07T17:58:45.924Z,0
2022-12-07T17:59:52.606Z,0
2022-12-07T18:00:59.395Z,0